<?xml version="1.0" encoding="UTF-8" standalone="no" ?>
<gpx xmlns="http://www.topografix.com/GPX/1/1" xmlns:xsi="http://www.w3.org/2001/XMLSchema-instance" xsi:schemaLocation="http://www.topografix.com/GPX/1/1 http://www.topografix.com/GPX/1/1/gpx.xsd" version="1.1" creator="VisuGPX - https://www.visugpx.com">
  <metadata>
    <name>Saint-Laurent La mairie-Buchet-etangs coulée verte</name>
  </metadata>
  <trk>
    <name><![CDATA[15567580-La mairie-Buchet-etangs coulée verte]]></name>
    <trkseg>
      <trkpt lat="46.95899" lon="-0.88668">
        <ele>112</ele>
        <time>2022-09-19T16:26:19Z</time>
      </trkpt>
      <trkpt lat="46.95928" lon="-0.88606">
        <ele>112</ele>
        <time>2022-09-19T16:27:00Z</time>
      </trkpt>
      <trkpt lat="46.95971" lon="-0.88618">
        <ele>113</ele>
        <time>2022-09-19T16:27:35Z</time>
      </trkpt>
      <trkpt lat="46.95981" lon="-0.88627">
        <ele>113</ele>
        <time>2022-09-19T16:27:45Z</time>
      </trkpt>
      <trkpt lat="46.9602" lon="-0.887">
        <ele>113</ele>
        <time>2022-09-19T16:28:35Z</time>
      </trkpt>
      <trkpt lat="46.9603" lon="-0.88698">
        <ele>113</ele>
        <time>2022-09-19T16:28:43Z</time>
      </trkpt>
      <trkpt lat="46.96042" lon="-0.88687">
        <ele>112</ele>
        <time>2022-09-19T16:28:55Z</time>
      </trkpt>
      <trkpt lat="46.96056" lon="-0.88634">
        <ele>113</ele>
        <time>2022-09-19T16:29:26Z</time>
      </trkpt>
      <trkpt lat="46.96108" lon="-0.88566">
        <ele>117</ele>
        <time>2022-09-19T16:30:21Z</time>
      </trkpt>
      <trkpt lat="46.96127" lon="-0.88543">
        <ele>120</ele>
        <time>2022-09-19T16:30:41Z</time>
      </trkpt>
      <trkpt lat="46.96207" lon="-0.88703">
        <ele>123</ele>
        <time>2022-09-19T16:32:30Z</time>
      </trkpt>
      <trkpt lat="46.96222" lon="-0.88705">
        <ele>125</ele>
        <time>2022-09-19T16:32:42Z</time>
      </trkpt>
      <trkpt lat="46.96232" lon="-0.88718">
        <ele>126</ele>
        <time>2022-09-19T16:32:52Z</time>
      </trkpt>
      <trkpt lat="46.9622" lon="-0.88759">
        <ele>121</ele>
        <time>2022-09-19T16:33:17Z</time>
      </trkpt>
      <trkpt lat="46.96196" lon="-0.88801">
        <ele>115</ele>
        <time>2022-09-19T16:33:47Z</time>
      </trkpt>
      <trkpt lat="46.96192" lon="-0.88801">
        <ele>115</ele>
        <time>2022-09-19T16:33:50Z</time>
      </trkpt>
      <trkpt lat="46.96189" lon="-0.8881">
        <ele>114</ele>
        <time>2022-09-19T16:33:55Z</time>
      </trkpt>
      <trkpt lat="46.96194" lon="-0.88814">
        <ele>114</ele>
        <time>2022-09-19T16:34:00Z</time>
      </trkpt>
      <trkpt lat="46.96193" lon="-0.88818">
        <ele>114</ele>
        <time>2022-09-19T16:34:02Z</time>
      </trkpt>
      <trkpt lat="46.96228" lon="-0.88853">
        <ele>116</ele>
        <time>2022-09-19T16:34:36Z</time>
      </trkpt>
      <trkpt lat="46.96264" lon="-0.88896">
        <ele>115</ele>
        <time>2022-09-19T16:35:13Z</time>
      </trkpt>
      <trkpt lat="46.96286" lon="-0.88929">
        <ele>115</ele>
        <time>2022-09-19T16:35:39Z</time>
      </trkpt>
      <trkpt lat="46.96294" lon="-0.88933">
        <ele>115</ele>
        <time>2022-09-19T16:35:45Z</time>
      </trkpt>
      <trkpt lat="46.96344" lon="-0.89081">
        <ele>113</ele>
        <time>2022-09-19T16:37:16Z</time>
      </trkpt>
      <trkpt lat="46.96348" lon="-0.8913">
        <ele>112</ele>
        <time>2022-09-19T16:37:43Z</time>
      </trkpt>
      <trkpt lat="46.96343" lon="-0.89137">
        <ele>112</ele>
        <time>2022-09-19T16:37:48Z</time>
      </trkpt>
      <trkpt lat="46.96321" lon="-0.89143">
        <ele>111</ele>
        <time>2022-09-19T16:38:06Z</time>
      </trkpt>
      <trkpt lat="46.96324" lon="-0.89361">
        <ele>112</ele>
        <time>2022-09-19T16:40:05Z</time>
      </trkpt>
      <trkpt lat="46.96333" lon="-0.89427">
        <ele>115</ele>
        <time>2022-09-19T16:40:42Z</time>
      </trkpt>
      <trkpt lat="46.96329" lon="-0.8946">
        <ele>119</ele>
        <time>2022-09-19T16:41:00Z</time>
      </trkpt>
      <trkpt lat="46.96315" lon="-0.89475">
        <ele>120</ele>
        <time>2022-09-19T16:41:14Z</time>
      </trkpt>
      <trkpt lat="46.96272" lon="-0.89503">
        <ele>120</ele>
        <time>2022-09-19T16:41:52Z</time>
      </trkpt>
      <trkpt lat="46.96234" lon="-0.89534">
        <ele>117</ele>
        <time>2022-09-19T16:42:27Z</time>
      </trkpt>
      <trkpt lat="46.96225" lon="-0.89554">
        <ele>116</ele>
        <time>2022-09-19T16:42:40Z</time>
      </trkpt>
      <trkpt lat="46.9623" lon="-0.89569">
        <ele>116</ele>
        <time>2022-09-19T16:42:49Z</time>
      </trkpt>
      <trkpt lat="46.96276" lon="-0.89613">
        <ele>117</ele>
        <time>2022-09-19T16:43:33Z</time>
      </trkpt>
      <trkpt lat="46.96328" lon="-0.89655">
        <ele>119</ele>
        <time>2022-09-19T16:44:20Z</time>
      </trkpt>
      <trkpt lat="46.96346" lon="-0.89695">
        <ele>117</ele>
        <time>2022-09-19T16:44:47Z</time>
      </trkpt>
      <trkpt lat="46.96427" lon="-0.89762">
        <ele>119</ele>
        <time>2022-09-19T16:46:01Z</time>
      </trkpt>
      <trkpt lat="46.96452" lon="-0.89825">
        <ele>118</ele>
        <time>2022-09-19T16:46:41Z</time>
      </trkpt>
      <trkpt lat="46.96445" lon="-0.89835">
        <ele>116</ele>
        <time>2022-09-19T16:46:49Z</time>
      </trkpt>
      <trkpt lat="46.96446" lon="-0.89861">
        <ele>116</ele>
        <time>2022-09-19T16:47:03Z</time>
      </trkpt>
      <trkpt lat="46.96442" lon="-0.89873">
        <ele>115</ele>
        <time>2022-09-19T16:47:10Z</time>
      </trkpt>
      <trkpt lat="46.96469" lon="-0.9">
        <ele>119</ele>
        <time>2022-09-19T16:48:23Z</time>
      </trkpt>
      <trkpt lat="46.96466" lon="-0.90057">
        <ele>115</ele>
        <time>2022-09-19T16:48:54Z</time>
      </trkpt>
      <trkpt lat="46.96487" lon="-0.9011">
        <ele>113</ele>
        <time>2022-09-19T16:49:28Z</time>
      </trkpt>
      <trkpt lat="46.96493" lon="-0.90113">
        <ele>113</ele>
        <time>2022-09-19T16:49:33Z</time>
      </trkpt>
      <trkpt lat="46.96524" lon="-0.90143">
        <ele>112</ele>
        <time>2022-09-19T16:50:02Z</time>
      </trkpt>
      <trkpt lat="46.96528" lon="-0.90152">
        <ele>111</ele>
        <time>2022-09-19T16:50:08Z</time>
      </trkpt>
      <trkpt lat="46.96535" lon="-0.90156">
        <ele>111</ele>
        <time>2022-09-19T16:50:14Z</time>
      </trkpt>
      <trkpt lat="46.96569" lon="-0.90156">
        <ele>113</ele>
        <time>2022-09-19T16:50:42Z</time>
      </trkpt>
      <trkpt lat="46.96598" lon="-0.90181">
        <ele>114</ele>
        <time>2022-09-19T16:51:08Z</time>
      </trkpt>
      <trkpt lat="46.96595" lon="-0.90206">
        <ele>112</ele>
        <time>2022-09-19T16:51:22Z</time>
      </trkpt>
      <trkpt lat="46.96572" lon="-0.90199">
        <ele>110</ele>
        <time>2022-09-19T16:51:41Z</time>
      </trkpt>
      <trkpt lat="46.96557" lon="-0.90217">
        <ele>110</ele>
        <time>2022-09-19T16:51:57Z</time>
      </trkpt>
      <trkpt lat="46.9655" lon="-0.90221">
        <ele>110</ele>
        <time>2022-09-19T16:52:03Z</time>
      </trkpt>
      <trkpt lat="46.96542" lon="-0.90221">
        <ele>110</ele>
        <time>2022-09-19T16:52:09Z</time>
      </trkpt>
      <trkpt lat="46.96527" lon="-0.90201">
        <ele>110</ele>
        <time>2022-09-19T16:52:25Z</time>
      </trkpt>
      <trkpt lat="46.9645" lon="-0.90156">
        <ele>110</ele>
        <time>2022-09-19T16:53:32Z</time>
      </trkpt>
      <trkpt lat="46.96403" lon="-0.90114">
        <ele>112</ele>
        <time>2022-09-19T16:54:16Z</time>
      </trkpt>
      <trkpt lat="46.96391" lon="-0.90091">
        <ele>112</ele>
        <time>2022-09-19T16:54:32Z</time>
      </trkpt>
      <trkpt lat="46.96342" lon="-0.90065">
        <ele>116</ele>
        <time>2022-09-19T16:55:13Z</time>
      </trkpt>
      <trkpt lat="46.9632" lon="-0.90055">
        <ele>119</ele>
        <time>2022-09-19T16:55:32Z</time>
      </trkpt>
      <trkpt lat="46.96305" lon="-0.90061">
        <ele>121</ele>
        <time>2022-09-19T16:55:44Z</time>
      </trkpt>
      <trkpt lat="46.96294" lon="-0.9007">
        <ele>123</ele>
        <time>2022-09-19T16:55:54Z</time>
      </trkpt>
      <trkpt lat="46.96278" lon="-0.9007">
        <ele>125</ele>
        <time>2022-09-19T16:56:07Z</time>
      </trkpt>
      <trkpt lat="46.96246" lon="-0.90061">
        <ele>129</ele>
        <time>2022-09-19T16:56:33Z</time>
      </trkpt>
      <trkpt lat="46.96221" lon="-0.90047">
        <ele>131</ele>
        <time>2022-09-19T16:56:55Z</time>
      </trkpt>
      <trkpt lat="46.96191" lon="-0.90046">
        <ele>133</ele>
        <time>2022-09-19T16:57:19Z</time>
      </trkpt>
      <trkpt lat="46.96171" lon="-0.90078">
        <ele>135</ele>
        <time>2022-09-19T16:57:42Z</time>
      </trkpt>
      <trkpt lat="46.96119" lon="-0.90084">
        <ele>140</ele>
        <time>2022-09-19T16:58:24Z</time>
      </trkpt>
      <trkpt lat="46.95961" lon="-0.90044">
        <ele>144</ele>
        <time>2022-09-19T17:00:32Z</time>
      </trkpt>
      <trkpt lat="46.95953" lon="-0.90026">
        <ele>143</ele>
        <time>2022-09-19T17:00:44Z</time>
      </trkpt>
      <trkpt lat="46.95918" lon="-0.89994">
        <ele>141</ele>
        <time>2022-09-19T17:01:17Z</time>
      </trkpt>
      <trkpt lat="46.95914" lon="-0.89971">
        <ele>141</ele>
        <time>2022-09-19T17:01:30Z</time>
      </trkpt>
      <trkpt lat="46.95905" lon="-0.89965">
        <ele>140</ele>
        <time>2022-09-19T17:01:38Z</time>
      </trkpt>
      <trkpt lat="46.95875" lon="-0.8997">
        <ele>140</ele>
        <time>2022-09-19T17:02:02Z</time>
      </trkpt>
      <trkpt lat="46.95852" lon="-0.8998">
        <ele>139</ele>
        <time>2022-09-19T17:02:22Z</time>
      </trkpt>
      <trkpt lat="46.9584" lon="-0.89992">
        <ele>140</ele>
        <time>2022-09-19T17:02:33Z</time>
      </trkpt>
      <trkpt lat="46.95817" lon="-0.89994">
        <ele>139</ele>
        <time>2022-09-19T17:02:52Z</time>
      </trkpt>
      <trkpt lat="46.95801" lon="-0.89992">
        <ele>139</ele>
        <time>2022-09-19T17:03:04Z</time>
      </trkpt>
      <trkpt lat="46.95778" lon="-0.89987">
        <ele>138</ele>
        <time>2022-09-19T17:03:23Z</time>
      </trkpt>
      <trkpt lat="46.95676" lon="-0.89913">
        <ele>138</ele>
        <time>2022-09-19T17:04:54Z</time>
      </trkpt>
      <trkpt lat="46.95666" lon="-0.89892">
        <ele>138</ele>
        <time>2022-09-19T17:05:08Z</time>
      </trkpt>
      <trkpt lat="46.95664" lon="-0.89843">
        <ele>139</ele>
        <time>2022-09-19T17:05:35Z</time>
      </trkpt>
      <trkpt lat="46.95636" lon="-0.89837">
        <ele>139</ele>
        <time>2022-09-19T17:05:58Z</time>
      </trkpt>
      <trkpt lat="46.95603" lon="-0.89852">
        <ele>139</ele>
        <time>2022-09-19T17:06:25Z</time>
      </trkpt>
      <trkpt lat="46.95577" lon="-0.89857">
        <ele>139</ele>
        <time>2022-09-19T17:06:46Z</time>
      </trkpt>
      <trkpt lat="46.95571" lon="-0.89848">
        <ele>139</ele>
        <time>2022-09-19T17:06:53Z</time>
      </trkpt>
      <trkpt lat="46.95563" lon="-0.89823">
        <ele>141</ele>
        <time>2022-09-19T17:07:08Z</time>
      </trkpt>
      <trkpt lat="46.95564" lon="-0.8982">
        <ele>141</ele>
        <time>2022-09-19T17:07:10Z</time>
      </trkpt>
      <trkpt lat="46.95571" lon="-0.89818">
        <ele>141</ele>
        <time>2022-09-19T17:07:16Z</time>
      </trkpt>
      <trkpt lat="46.95572" lon="-0.89799">
        <ele>142</ele>
        <time>2022-09-19T17:07:26Z</time>
      </trkpt>
      <trkpt lat="46.95579" lon="-0.89797">
        <ele>143</ele>
        <time>2022-09-19T17:07:32Z</time>
      </trkpt>
      <trkpt lat="46.95598" lon="-0.89794">
        <ele>142</ele>
        <time>2022-09-19T17:07:47Z</time>
      </trkpt>
      <trkpt lat="46.95602" lon="-0.89784">
        <ele>143</ele>
        <time>2022-09-19T17:07:54Z</time>
      </trkpt>
      <trkpt lat="46.95601" lon="-0.89778">
        <ele>143</ele>
        <time>2022-09-19T17:07:57Z</time>
      </trkpt>
      <trkpt lat="46.95586" lon="-0.89772">
        <ele>144</ele>
        <time>2022-09-19T17:08:09Z</time>
      </trkpt>
      <trkpt lat="46.95552" lon="-0.89775">
        <ele>144</ele>
        <time>2022-09-19T17:08:37Z</time>
      </trkpt>
      <trkpt lat="46.95533" lon="-0.8978">
        <ele>144</ele>
        <time>2022-09-19T17:08:52Z</time>
      </trkpt>
      <trkpt lat="46.95493" lon="-0.89767">
        <ele>145</ele>
        <time>2022-09-19T17:09:25Z</time>
      </trkpt>
      <trkpt lat="46.95453" lon="-0.89736">
        <ele>146</ele>
        <time>2022-09-19T17:10:01Z</time>
      </trkpt>
      <trkpt lat="46.95427" lon="-0.89722">
        <ele>146</ele>
        <time>2022-09-19T17:10:23Z</time>
      </trkpt>
      <trkpt lat="46.95406" lon="-0.89698">
        <ele>148</ele>
        <time>2022-09-19T17:10:45Z</time>
      </trkpt>
      <trkpt lat="46.95352" lon="-0.89649">
        <ele>150</ele>
        <time>2022-09-19T17:11:36Z</time>
      </trkpt>
      <trkpt lat="46.95305" lon="-0.89587">
        <ele>152</ele>
        <time>2022-09-19T17:12:26Z</time>
      </trkpt>
      <trkpt lat="46.95292" lon="-0.89553">
        <ele>153</ele>
        <time>2022-09-19T17:12:48Z</time>
      </trkpt>
      <trkpt lat="46.95285" lon="-0.89539">
        <ele>153</ele>
        <time>2022-09-19T17:12:57Z</time>
      </trkpt>
      <trkpt lat="46.95271" lon="-0.89493">
        <ele>153</ele>
        <time>2022-09-19T17:13:25Z</time>
      </trkpt>
      <trkpt lat="46.95267" lon="-0.89471">
        <ele>153</ele>
        <time>2022-09-19T17:13:37Z</time>
      </trkpt>
      <trkpt lat="46.95239" lon="-0.89423">
        <ele>152</ele>
        <time>2022-09-19T17:14:11Z</time>
      </trkpt>
      <trkpt lat="46.95217" lon="-0.89336">
        <ele>153</ele>
        <time>2022-09-19T17:15:02Z</time>
      </trkpt>
      <trkpt lat="46.9523" lon="-0.89332">
        <ele>152</ele>
        <time>2022-09-19T17:15:13Z</time>
      </trkpt>
      <trkpt lat="46.95218" lon="-0.89298">
        <ele>152</ele>
        <time>2022-09-19T17:15:34Z</time>
      </trkpt>
      <trkpt lat="46.95216" lon="-0.89269">
        <ele>151</ele>
        <time>2022-09-19T17:15:50Z</time>
      </trkpt>
      <trkpt lat="46.95226" lon="-0.89167">
        <ele>147</ele>
        <time>2022-09-19T17:16:46Z</time>
      </trkpt>
      <trkpt lat="46.95223" lon="-0.89132">
        <ele>146</ele>
        <time>2022-09-19T17:17:05Z</time>
      </trkpt>
      <trkpt lat="46.95211" lon="-0.89093">
        <ele>147</ele>
        <time>2022-09-19T17:17:29Z</time>
      </trkpt>
      <trkpt lat="46.952" lon="-0.89065">
        <ele>147</ele>
        <time>2022-09-19T17:17:46Z</time>
      </trkpt>
      <trkpt lat="46.95201" lon="-0.89041">
        <ele>146</ele>
        <time>2022-09-19T17:17:59Z</time>
      </trkpt>
      <trkpt lat="46.95206" lon="-0.89029">
        <ele>145</ele>
        <time>2022-09-19T17:18:07Z</time>
      </trkpt>
      <trkpt lat="46.95212" lon="-0.89033">
        <ele>145</ele>
        <time>2022-09-19T17:18:12Z</time>
      </trkpt>
      <trkpt lat="46.95227" lon="-0.89005">
        <ele>142</ele>
        <time>2022-09-19T17:18:32Z</time>
      </trkpt>
      <trkpt lat="46.95249" lon="-0.88958">
        <ele>140</ele>
        <time>2022-09-19T17:19:03Z</time>
      </trkpt>
      <trkpt lat="46.95244" lon="-0.89023">
        <ele>141</ele>
        <time>2022-09-19T17:19:39Z</time>
      </trkpt>
      <trkpt lat="46.95277" lon="-0.88939">
        <ele>138</ele>
        <time>2022-09-19T17:20:32Z</time>
      </trkpt>
      <trkpt lat="46.95282" lon="-0.88977">
        <ele>137</ele>
        <time>2022-09-19T17:20:53Z</time>
      </trkpt>
      <trkpt lat="46.95266" lon="-0.89021">
        <ele>139</ele>
        <time>2022-09-19T17:21:20Z</time>
      </trkpt>
      <trkpt lat="46.9528" lon="-0.89023">
        <ele>139</ele>
        <time>2022-09-19T17:21:31Z</time>
      </trkpt>
      <trkpt lat="46.95284" lon="-0.8903">
        <ele>139</ele>
        <time>2022-09-19T17:21:36Z</time>
      </trkpt>
      <trkpt lat="46.95297" lon="-0.89038">
        <ele>139</ele>
        <time>2022-09-19T17:21:48Z</time>
      </trkpt>
      <trkpt lat="46.95341" lon="-0.8899">
        <ele>134</ele>
        <time>2022-09-19T17:22:32Z</time>
      </trkpt>
      <trkpt lat="46.95346" lon="-0.88979">
        <ele>134</ele>
        <time>2022-09-19T17:22:39Z</time>
      </trkpt>
      <trkpt lat="46.95389" lon="-0.88958">
        <ele>135</ele>
        <time>2022-09-19T17:23:15Z</time>
      </trkpt>
      <trkpt lat="46.954" lon="-0.88959">
        <ele>136</ele>
        <time>2022-09-19T17:23:24Z</time>
      </trkpt>
      <trkpt lat="46.95408" lon="-0.88965">
        <ele>137</ele>
        <time>2022-09-19T17:23:31Z</time>
      </trkpt>
      <trkpt lat="46.95406" lon="-0.88978">
        <ele>137</ele>
        <time>2022-09-19T17:23:38Z</time>
      </trkpt>
      <trkpt lat="46.95401" lon="-0.88988">
        <ele>137</ele>
        <time>2022-09-19T17:23:45Z</time>
      </trkpt>
      <trkpt lat="46.95385" lon="-0.89002">
        <ele>137</ele>
        <time>2022-09-19T17:24:00Z</time>
      </trkpt>
      <trkpt lat="46.95393" lon="-0.89017">
        <ele>139</ele>
        <time>2022-09-19T17:24:11Z</time>
      </trkpt>
      <trkpt lat="46.95429" lon="-0.88984">
        <ele>138</ele>
        <time>2022-09-19T17:24:45Z</time>
      </trkpt>
      <trkpt lat="46.95438" lon="-0.88963">
        <ele>136</ele>
        <time>2022-09-19T17:24:58Z</time>
      </trkpt>
      <trkpt lat="46.95445" lon="-0.88964">
        <ele>136</ele>
        <time>2022-09-19T17:25:04Z</time>
      </trkpt>
      <trkpt lat="46.9551" lon="-0.89004">
        <ele>136</ele>
        <time>2022-09-19T17:26:00Z</time>
      </trkpt>
      <trkpt lat="46.95516" lon="-0.89029">
        <ele>135</ele>
        <time>2022-09-19T17:26:15Z</time>
      </trkpt>
      <trkpt lat="46.95577" lon="-0.89083">
        <ele>131</ele>
        <time>2022-09-19T17:27:12Z</time>
      </trkpt>
      <trkpt lat="46.95607" lon="-0.89085">
        <ele>130</ele>
        <time>2022-09-19T17:27:36Z</time>
      </trkpt>
      <trkpt lat="46.95668" lon="-0.88992">
        <ele>124</ele>
        <time>2022-09-19T17:28:46Z</time>
      </trkpt>
      <trkpt lat="46.95694" lon="-0.88944">
        <ele>121</ele>
        <time>2022-09-19T17:29:20Z</time>
      </trkpt>
      <trkpt lat="46.9572" lon="-0.8894">
        <ele>120</ele>
        <time>2022-09-19T17:29:41Z</time>
      </trkpt>
      <trkpt lat="46.95714" lon="-0.88922">
        <ele>119</ele>
        <time>2022-09-19T17:29:52Z</time>
      </trkpt>
      <trkpt lat="46.95704" lon="-0.88904">
        <ele>118</ele>
        <time>2022-09-19T17:30:04Z</time>
      </trkpt>
      <trkpt lat="46.95757" lon="-0.88839">
        <ele>115</ele>
        <time>2022-09-19T17:31:00Z</time>
      </trkpt>
      <trkpt lat="46.95763" lon="-0.88823">
        <ele>115</ele>
        <time>2022-09-19T17:31:10Z</time>
      </trkpt>
      <trkpt lat="46.95766" lon="-0.88811">
        <ele>115</ele>
        <time>2022-09-19T17:31:17Z</time>
      </trkpt>
      <trkpt lat="46.95771" lon="-0.88807">
        <ele>114</ele>
        <time>2022-09-19T17:31:21Z</time>
      </trkpt>
      <trkpt lat="46.95781" lon="-0.8881">
        <ele>114</ele>
        <time>2022-09-19T17:31:29Z</time>
      </trkpt>
      <trkpt lat="46.95803" lon="-0.88824">
        <ele>115</ele>
        <time>2022-09-19T17:31:49Z</time>
      </trkpt>
      <trkpt lat="46.95812" lon="-0.88826">
        <ele>115</ele>
        <time>2022-09-19T17:31:56Z</time>
      </trkpt>
      <trkpt lat="46.95825" lon="-0.8882">
        <ele>114</ele>
        <time>2022-09-19T17:32:07Z</time>
      </trkpt>
      <trkpt lat="46.95834" lon="-0.88784">
        <ele>113</ele>
        <time>2022-09-19T17:32:28Z</time>
      </trkpt>
      <trkpt lat="46.95839" lon="-0.8877">
        <ele>112</ele>
        <time>2022-09-19T17:32:36Z</time>
      </trkpt>
      <trkpt lat="46.9585" lon="-0.88756">
        <ele>111</ele>
        <time>2022-09-19T17:32:48Z</time>
      </trkpt>
      <trkpt lat="46.95855" lon="-0.88747">
        <ele>111</ele>
        <time>2022-09-19T17:32:54Z</time>
      </trkpt>
      <trkpt lat="46.95867" lon="-0.88691">
        <ele>111</ele>
        <time>2022-09-19T17:33:26Z</time>
      </trkpt>
      <trkpt lat="46.95899" lon="-0.88668">
        <ele>112</ele>
        <time>2022-09-19T17:33:55Z</time>
      </trkpt>
    </trkseg>
  </trk>
</gpx>